Time;durP1;ratioP1;P1;durP2;ratioP2;P2;SDS_P1;SDS_P2;PMS_P1;PMS_P2;Temp;Humidity;BMP_temperature;BMP_pressure;BME280_temperature;BME280_humidity;BME280_pressure;Samples;Min_cycle;Max_cycle;Signal;HPM_P1;HPM_P2
2022/08/22 00:01:53;;;;;;;;;;;22.40;50.00;;;;;;5022825;28;20381;-74
2022/08/22 00:04:23;;;;;;;;;;;22.40;50.30;;;;;;5020771;28;19933;-76
2022/08/22 00:06:52;;;;;;;;;;;22.40;50.40;;;;;;5027030;28;20483;-76
2022/08/22 00:09:28;;;;;;;;;;;22.40;50.50;;;;;;5026113;28;19935;-77
2022/08/22 00:11:58;;;;;;;;;;;22.30;50.70;;;;;;5022742;28;19937;-75
2022/08/22 00:14:32;;;;;;;;;;;22.30;50.80;;;;;;5023286;28;19925;-75
2022/08/22 00:17:02;;;;;;;;;;;22.30;51.00;;;;;;5022141;28;19940;-74
2022/08/22 00:19:35;;;;;;;;;;;22.30;51.00;;;;;;5019368;28;19929;-76
2022/08/22 00:22:03;;;;;;;;;;;22.20;51.10;;;;;;5023630;28;19929;-75
2022/08/22 00:24:34;;;;;;;;;;;22.10;51.20;;;;;;5021213;28;20388;-73
2022/08/22 00:27:03;;;;;;;;;;;22.20;51.30;;;;;;5021373;28;19932;-74
2022/08/22 00:29:32;;;;;;;;;;;22.10;51.30;;;;;;5024650;28;19936;-74
2022/08/22 00:32:05;;;;;;;;;;;22.10;51.30;;;;;;5021433;28;19929;-74
2022/08/22 00:34:34;;;;;;;;;;;22.10;51.60;;;;;;5021326;28;19929;-75
2022/08/22 00:37:02;;;;;;;;;;;22.00;51.60;;;;;;5022192;28;19932;-74
2022/08/22 00:39:33;;;;;;;;;;;22.00;51.50;;;;;;5021322;28;19953;-75
2022/08/22 00:42:23;;;;;;;;;;;22.00;51.70;;;;;;5021266;28;20030;-74
2022/08/22 00:45:00;;;;;;;;;;;21.90;51.80;;;;;;5023021;28;19929;-75
2022/08/22 00:47:37;;;;;;;;;;;21.90;51.70;;;;;;5019931;28;19933;-76
2022/08/22 00:50:19;;;;;;;;;;;21.90;51.80;;;;;;5022948;28;19929;-73
2022/08/22 00:52:53;;;;;;;;;;;21.90;51.80;;;;;;5025124;28;19929;-74
2022/08/22 00:55:32;;;;;;;;;;;21.90;51.80;;;;;;5024753;28;19957;-74
2022/08/22 00:58:13;;;;;;;;;;;21.80;51.80;;;;;;5023407;28;20036;-75
2022/08/22 01:00:43;;;;;;;;;;;21.80;51.90;;;;;;5025577;28;20313;-75
2022/08/22 01:03:27;;;;;;;;;;;21.70;52.00;;;;;;5028010;28;19936;-75
2022/08/22 01:06:04;;;;;;;;;;;21.70;52.10;;;;;;5019982;28;20696;-74
2022/08/22 01:08:38;;;;;;;;;;;21.70;52.10;;;;;;5022224;28;19933;-75
2022/08/22 01:11:10;;;;;;;;;;;21.70;52.30;;;;;;5018446;28;20293;-73
2022/08/22 01:13:49;;;;;;;;;;;21.60;52.20;;;;;;5019195;28;19933;-75
2022/08/22 01:16:26;;;;;;;;;;;21.60;52.00;;;;;;5014264;28;19925;-75
2022/08/22 01:19:00;;;;;;;;;;;21.60;52.00;;;;;;5018398;28;20034;-74
2022/08/22 01:21:51;;;;;;;;;;;21.60;52.20;;;;;;5020590;28;20348;-76
2022/08/22 01:25:16;;;;;;;;;;;21.50;52.10;;;;;;5016689;28;19933;-76
2022/08/22 01:27:49;;;;;;;;;;;21.50;52.20;;;;;;5020953;28;20018;-75
2022/08/22 01:30:28;;;;;;;;;;;21.40;52.20;;;;;;5019822;28;19929;-74
2022/08/22 01:33:14;;;;;;;;;;;21.40;52.40;;;;;;5022862;28;19941;-76
2022/08/22 01:36:10;;;;;;;;;;;21.40;52.50;;;;;;5019156;28;19929;-74
2022/08/22 01:38:51;;;;;;;;;;;21.40;52.60;;;;;;5020299;28;19925;-75
2022/08/22 01:41:35;;;;;;;;;;;21.40;52.60;;;;;;5019089;28;20309;-75
2022/08/22 01:44:08;;;;;;;;;;;21.30;52.60;;;;;;5016629;28;19936;-77
2022/08/22 01:46:40;;;;;;;;;;;21.30;52.60;;;;;;5020751;28;20287;-75
2022/08/22 01:49:10;;;;;;;;;;;21.30;52.80;;;;;;5018066;28;19936;-75
2022/08/22 01:51:43;;;;;;;;;;;21.30;52.70;;;;;;5022233;28;19937;-75
2022/08/22 01:54:12;;;;;;;;;;;21.20;52.80;;;;;;5021174;28;19966;-76
2022/08/22 01:56:41;;;;;;;;;;;21.20;52.80;;;;;;5017146;28;19936;-74
2022/08/22 01:59:10;;;;;;;;;;;21.20;52.80;;;;;;5019768;28;19940;-75
2022/08/22 02:01:45;;;;;;;;;;;21.10;53.00;;;;;;5023452;28;19937;-75
2022/08/22 02:04:15;;;;;;;;;;;21.10;53.10;;;;;;5019361;28;19941;-75
2022/08/22 02:06:45;;;;;;;;;;;21.10;53.10;;;;;;5019617;28;19932;-75
2022/08/22 02:09:20;;;;;;;;;;;21.10;53.10;;;;;;5025275;28;19961;-75
2022/08/22 02:11:50;;;;;;;;;;;21.00;53.00;;;;;;5018979;28;19948;-74
2022/08/22 02:14:22;;;;;;;;;;;21.00;53.00;;;;;;5023528;28;20281;-75
2022/08/22 02:16:52;;;;;;;;;;;21.00;53.10;;;;;;5015423;28;19932;-76
2022/08/22 02:19:25;;;;;;;;;;;20.90;53.10;;;;;;5015971;28;20449;-77
2022/08/22 02:21:56;;;;;;;;;;;20.90;53.20;;;;;;5019408;28;20038;-74
2022/08/22 02:24:25;;;;;;;;;;;20.90;53.10;;;;;;5017860;28;20758;-75
2022/08/22 02:27:03;;;;;;;;;;;20.90;53.30;;;;;;5020330;28;19936;-76
2022/08/22 02:29:31;;;;;;;;;;;20.90;53.40;;;;;;5019635;28;20705;-75
2022/08/22 02:32:01;;;;;;;;;;;20.80;53.20;;;;;;5022505;28;19933;-75
2022/08/22 02:34:32;;;;;;;;;;;20.80;53.30;;;;;;5018755;28;19933;-76
2022/08/22 02:37:05;;;;;;;;;;;20.70;53.40;;;;;;5022438;28;19929;-75
2022/08/22 02:39:35;;;;;;;;;;;20.70;53.60;;;;;;5018699;28;19929;-73
2022/08/22 02:42:11;;;;;;;;;;;20.70;53.60;;;;;;5020040;28;19944;-75
2022/08/22 02:44:39;;;;;;;;;;;20.70;53.60;;;;;;5023145;28;20186;-76
2022/08/22 02:47:09;;;;;;;;;;;20.70;53.60;;;;;;5023010;28;19929;-74
2022/08/22 02:49:41;;;;;;;;;;;20.70;53.80;;;;;;5021887;28;19925;-74
2022/08/22 02:52:12;;;;;;;;;;;20.70;53.80;;;;;;5026233;28;20250;-75
2022/08/22 02:54:42;;;;;;;;;;;20.60;53.90;;;;;;5023035;28;19929;-75
2022/08/22 02:57:11;;;;;;;;;;;20.60;53.90;;;;;;5024028;28;19947;-74
2022/08/22 02:59:39;;;;;;;;;;;20.60;54.00;;;;;;5023774;28;20152;-75
2022/08/22 03:02:25;;;;;;;;;;;20.60;54.00;;;;;;5019412;28;19935;-75
2022/08/22 03:04:54;;;;;;;;;;;20.50;54.00;;;;;;5020289;28;19933;-74
2022/08/22 03:07:30;;;;;;;;;;;20.50;54.10;;;;;;5021751;28;20556;-75
2022/08/22 03:10:00;;;;;;;;;;;20.50;54.10;;;;;;5021478;28;19933;-74
2022/08/22 03:12:30;;;;;;;;;;;20.40;54.10;;;;;;5023001;28;19952;-75
2022/08/22 03:15:01;;;;;;;;;;;20.50;54.20;;;;;;5021894;28;20397;-76
2022/08/22 03:17:30;;;;;;;;;;;20.40;54.30;;;;;;5016147;28;19940;-74
2022/08/22 03:20:00;;;;;;;;;;;20.40;54.40;;;;;;5023367;28;20018;-74
2022/08/22 03:22:32;;;;;;;;;;;20.40;54.50;;;;;;5021098;28;20019;-75
2022/08/22 03:25:03;;;;;;;;;;;20.30;54.50;;;;;;5019575;28;19937;-75
2022/08/22 03:27:34;;;;;;;;;;;20.20;53.40;;;;;;5024925;28;20413;-76
2022/08/22 03:30:02;;;;;;;;;;;20.10;55.20;;;;;;5026767;28;19949;-76
2022/08/22 03:32:43;;;;;;;;;;;20.00;55.60;;;;;;5022855;28;20461;-77
2022/08/22 03:35:11;;;;;;;;;;;19.90;55.20;;;;;;5019705;28;19933;-76
2022/08/22 03:37:40;;;;;;;;;;;19.90;55.40;;;;;;5023598;28;20751;-76
2022/08/22 03:40:20;;;;;;;;;;;19.90;55.60;;;;;;5021396;28;20649;-78
2022/08/22 03:43:05;;;;;;;;;;;19.90;55.50;;;;;;5024494;28;20285;-76
2022/08/22 03:45:50;;;;;;;;;;;19.90;55.50;;;;;;5023926;28;19929;-74
2022/08/22 03:48:29;;;;;;;;;;;19.90;55.40;;;;;;5020365;28;19933;-77
2022/08/22 03:51:10;;;;;;;;;;;19.90;55.30;;;;;;5027620;28;19936;-76
2022/08/22 03:53:45;;;;;;;;;;;19.90;55.00;;;;;;5020457;28;19972;-76
2022/08/22 03:56:43;;;;;;;;;;;19.80;55.00;;;;;;5019936;28;20301;-75
2022/08/22 03:59:23;;;;;;;;;;;19.80;55.20;;;;;;4980411;28;20455;-76
2022/08/22 04:02:07;;;;;;;;;;;19.90;55.00;;;;;;5018098;28;19929;-77
2022/08/22 04:04:53;;;;;;;;;;;19.90;55.10;;;;;;5022098;28;19925;-75
2022/08/22 04:07:36;;;;;;;;;;;19.80;55.10;;;;;;5020835;28;19933;-77
2022/08/22 04:10:14;;;;;;;;;;;19.80;55.00;;;;;;5020810;28;19933;-77
2022/08/22 04:12:48;;;;;;;;;;;19.70;55.20;;;;;;5023514;28;19929;-77
2022/08/22 04:15:33;;;;;;;;;;;19.80;55.30;;;;;;5021606;28;19929;-77
2022/08/22 04:18:15;;;;;;;;;;;19.70;55.40;;;;;;5019269;28;19953;-76
2022/08/22 04:20:55;;;;;;;;;;;19.70;55.40;;;;;;5025128;28;19929;-75
2022/08/22 04:23:32;;;;;;;;;;;19.60;55.30;;;;;;5021740;28;19936;-77
2022/08/22 04:26:02;;;;;;;;;;;19.60;55.40;;;;;;5024845;28;19936;-77
2022/08/22 04:28:31;;;;;;;;;;;19.60;55.70;;;;;;5024171;28;20313;-75
2022/08/22 04:31:01;;;;;;;;;;;19.60;55.70;;;;;;5032907;28;19932;-75
2022/08/22 04:33:30;;;;;;;;;;;19.50;55.70;;;;;;5032345;28;19939;-76
2022/08/22 04:36:00;;;;;;;;;;;19.60;55.80;;;;;;5026398;28;19929;-76
2022/08/22 04:38:28;;;;;;;;;;;19.50;55.60;;;;;;5022889;28;19936;-77
2022/08/22 04:40:56;;;;;;;;;;;19.50;55.90;;;;;;5028142;28;19957;-76
2022/08/22 04:43:29;;;;;;;;;;;19.50;56.00;;;;;;5021035;28;19929;-77
2022/08/22 04:46:00;;;;;;;;;;;19.40;55.90;;;;;;5018742;28;19929;-75
2022/08/22 04:48:31;;;;;;;;;;;19.40;55.90;;;;;;5020642;28;19929;-76
2022/08/22 04:51:01;;;;;;;;;;;19.40;56.00;;;;;;5017148;28;19928;-75
2022/08/22 04:53:46;;;;;;;;;;;19.40;55.80;;;;;;5023117;28;19940;-74
2022/08/22 04:56:18;;;;;;;;;;;19.30;56.10;;;;;;5018076;28;19929;-76
2022/08/22 04:58:47;;;;;;;;;;;19.30;56.20;;;;;;5022245;28;20435;-75
2022/08/22 05:01:16;;;;;;;;;;;19.30;56.30;;;;;;5025659;28;20405;-77
2022/08/22 05:03:46;;;;;;;;;;;19.30;56.10;;;;;;5018988;28;19933;-75
2022/08/22 05:06:17;;;;;;;;;;;19.20;56.10;;;;;;5020556;28;19937;-76
2022/08/22 05:08:45;;;;;;;;;;;19.20;56.40;;;;;;5023877;28;20455;-77
2022/08/22 05:11:14;;;;;;;;;;;19.20;56.30;;;;;;5024722;28;19936;-77
2022/08/22 05:13:43;;;;;;;;;;;19.20;56.20;;;;;;5025051;28;19940;-76
2022/08/22 05:16:13;;;;;;;;;;;19.10;57.00;;;;;;5019678;28;19936;-75
2022/08/22 05:18:42;;;;;;;;;;;19.10;56.40;;;;;;5018669;28;19926;-75
2022/08/22 05:21:10;;;;;;;;;;;19.10;56.50;;;;;;5018703;28;20400;-75
2022/08/22 05:23:39;;;;;;;;;;;19.10;56.60;;;;;;5020767;28;19929;-76
2022/08/22 05:26:07;;;;;;;;;;;19.10;56.60;;;;;;5021048;28;19933;-74
2022/08/22 05:28:34;;;;;;;;;;;19.10;56.60;;;;;;5018558;28;19937;-76
2022/08/22 05:31:04;;;;;;;;;;;19.00;56.40;;;;;;5022885;28;19936;-76
2022/08/22 05:33:33;;;;;;;;;;;19.00;56.60;;;;;;5019048;28;19929;-75
2022/08/22 05:36:02;;;;;;;;;;;19.00;56.50;;;;;;5021350;28;19936;-77
2022/08/22 05:38:33;;;;;;;;;;;19.00;56.60;;;;;;5021322;28;19933;-75
2022/08/22 05:41:01;;;;;;;;;;;19.00;56.70;;;;;;5019799;28;19929;-73
2022/08/22 05:43:28;;;;;;;;;;;18.90;56.80;;;;;;5023489;28;19964;-71
2022/08/22 05:45:55;;;;;;;;;;;18.90;57.00;;;;;;5023140;28;20397;-70
2022/08/22 05:48:29;;;;;;;;;;;18.90;57.00;;;;;;5022643;28;19936;-72
2022/08/22 05:51:00;;;;;;;;;;;18.90;57.10;;;;;;5023278;28;19976;-71
2022/08/22 05:53:29;;;;;;;;;;;18.90;56.90;;;;;;5023224;28;19940;-71
2022/08/22 05:55:58;;;;;;;;;;;18.90;57.10;;;;;;5019259;28;19937;-70
2022/08/22 05:58:37;;;;;;;;;;;18.80;57.20;;;;;;5025715;28;19936;-71
2022/08/22 06:01:08;;;;;;;;;;;18.80;57.10;;;;;;5022247;28;19936;-71
2022/08/22 06:03:38;;;;;;;;;;;18.80;57.30;;;;;;5023228;28;19944;-71
2022/08/22 06:06:10;;;;;;;;;;;18.80;57.30;;;;;;5022081;28;19925;-70
2022/08/22 06:08:38;;;;;;;;;;;18.80;57.20;;;;;;5023874;28;19929;-71
2022/08/22 06:11:07;;;;;;;;;;;18.80;57.30;;;;;;5020732;28;19934;-70
2022/08/22 06:13:36;;;;;;;;;;;18.80;57.40;;;;;;5019218;28;19929;-71
2022/08/22 06:16:07;;;;;;;;;;;18.80;57.30;;;;;;5022150;28;19933;-71
2022/08/22 06:18:35;;;;;;;;;;;18.80;57.20;;;;;;5017126;28;19929;-70
2022/08/22 06:21:03;;;;;;;;;;;18.70;58.00;;;;;;5022105;28;20272;-71
2022/08/22 06:23:36;;;;;;;;;;;18.80;57.50;;;;;;5022617;28;20432;-69
2022/08/22 06:26:04;;;;;;;;;;;18.70;57.40;;;;;;5020251;28;19929;-72
2022/08/22 06:28:34;;;;;;;;;;;18.70;57.20;;;;;;5021078;28;19929;-71
2022/08/22 06:31:02;;;;;;;;;;;18.70;57.20;;;;;;5022700;28;20524;-71
2022/08/22 06:33:31;;;;;;;;;;;18.70;57.40;;;;;;5021963;28;19933;-71
2022/08/22 06:38:57;;;;;;;;;;;18.70;57.50;;;;;;5021518;28;20054;-70
2022/08/22 06:41:26;;;;;;;;;;;18.70;57.50;;;;;;5016165;28;20559;-71
2022/08/22 06:43:53;;;;;;;;;;;18.70;57.60;;;;;;5017425;28;20353;-70
2022/08/22 06:46:21;;;;;;;;;;;18.70;57.60;;;;;;5022230;28;19937;-71
2022/08/22 06:48:48;;;;;;;;;;;18.70;57.60;;;;;;5022652;28;19932;-71
2022/08/22 06:51:16;;;;;;;;;;;18.70;57.70;;;;;;5022369;28;19936;-70
2022/08/22 06:53:45;;;;;;;;;;;18.70;57.70;;;;;;5022023;28;20023;-70
2022/08/22 06:56:18;;;;;;;;;;;18.70;57.70;;;;;;5018145;28;19936;-70
2022/08/22 06:58:46;;;;;;;;;;;18.80;57.70;;;;;;5022648;28;20027;-71
2022/08/22 07:01:13;;;;;;;;;;;18.80;57.60;;;;;;5022032;28;20550;-71
2022/08/22 07:03:43;;;;;;;;;;;18.80;57.60;;;;;;5021769;28;20592;-70
2022/08/22 07:06:13;;;;;;;;;;;18.80;57.60;;;;;;5019811;28;19936;-71
2022/08/22 07:08:39;;;;;;;;;;;18.80;57.70;;;;;;5021239;28;19933;-70
2022/08/22 07:11:10;;;;;;;;;;;18.80;57.50;;;;;;5021393;28;19925;-69
2022/08/22 07:13:39;;;;;;;;;;;18.80;57.40;;;;;;5021395;28;19929;-71
2022/08/22 07:16:07;;;;;;;;;;;18.80;57.10;;;;;;5021967;28;19929;-71
2022/08/22 07:18:34;;;;;;;;;;;18.90;57.10;;;;;;5020693;28;19929;-70
2022/08/22 07:21:02;;;;;;;;;;;18.90;57.30;;;;;;5022215;28;20390;-72
2022/08/22 07:23:32;;;;;;;;;;;18.90;57.30;;;;;;5022276;28;19933;-70
2022/08/22 07:26:05;;;;;;;;;;;18.90;57.30;;;;;;5021192;28;19936;-71
2022/08/22 07:28:35;;;;;;;;;;;18.90;57.40;;;;;;5024898;28;19925;-71
2022/08/22 07:31:08;;;;;;;;;;;19.00;57.30;;;;;;5025652;28;19932;-70
2022/08/22 07:33:42;;;;;;;;;;;19.00;57.20;;;;;;5023091;28;19929;-70
2022/08/22 07:36:28;;;;;;;;;;;19.00;57.20;;;;;;5023765;28;19929;-70
2022/08/22 07:39:03;;;;;;;;;;;19.10;57.10;;;;;;5022225;28;19929;-76
2022/08/22 07:41:33;;;;;;;;;;;19.10;56.90;;;;;;5017984;28;19940;-76
2022/08/22 07:44:05;;;;;;;;;;;19.10;56.90;;;;;;5016594;28;19980;-75
2022/08/22 07:46:35;;;;;;;;;;;19.20;56.90;;;;;;5024724;28;19933;-76
2022/08/22 07:49:07;;;;;;;;;;;19.20;56.90;;;;;;5025185;28;19929;-76
2022/08/22 07:51:35;;;;;;;;;;;19.20;56.80;;;;;;5021038;28;19929;-78
2022/08/22 07:54:05;;;;;;;;;;;19.30;56.60;;;;;;5022260;28;19940;-74
2022/08/22 07:56:34;;;;;;;;;;;19.30;56.60;;;;;;5020672;28;19929;-76
2022/08/22 07:59:04;;;;;;;;;;;19.30;56.60;;;;;;5022154;28;19933;-76
2022/08/22 08:01:34;;;;;;;;;;;19.30;56.60;;;;;;5028551;28;19935;-77
2022/08/22 08:04:02;;;;;;;;;;;19.30;56.60;;;;;;5019889;28;20401;-77
2022/08/22 08:06:30;;;;;;;;;;;19.30;56.60;;;;;;5022994;28;19932;-79
2022/08/22 08:08:57;;;;;;;;;;;19.40;56.60;;;;;;5023319;28;19929;-77
2022/08/22 08:11:26;;;;;;;;;;;19.40;56.50;;;;;;5018725;28;19936;-75
2022/08/22 08:13:56;;;;;;;;;;;19.40;56.30;;;;;;5022536;28;19932;-77
2022/08/22 08:16:25;;;;;;;;;;;19.50;56.40;;;;;;5023711;28;19929;-76
2022/08/22 08:18:55;;;;;;;;;;;19.50;56.40;;;;;;5023745;28;19929;-77
2022/08/22 08:21:25;;;;;;;;;;;19.50;56.20;;;;;;5022967;28;19947;-75
2022/08/22 08:23:52;;;;;;;;;;;19.60;56.30;;;;;;5021970;28;19932;-76
2022/08/22 08:26:21;;;;;;;;;;;19.70;56.20;;;;;;5018200;28;19937;-77
2022/08/22 08:28:48;;;;;;;;;;;19.70;56.10;;;;;;5021989;28;19936;-76
2022/08/22 08:31:20;;;;;;;;;;;19.70;55.90;;;;;;5022474;28;19929;-78
2022/08/22 08:33:48;;;;;;;;;;;19.80;55.90;;;;;;5022824;28;20034;-76
2022/08/22 08:36:24;;;;;;;;;;;19.80;55.70;;;;;;5019287;28;19929;-75
2022/08/22 08:38:55;;;;;;;;;;;19.80;55.60;;;;;;5024616;28;19935;-76
2022/08/22 08:41:36;;;;;;;;;;;19.80;55.40;;;;;;5021636;28;19929;-76
2022/08/22 08:44:10;;;;;;;;;;;19.90;55.40;;;;;;5021326;28;19936;-77
2022/08/22 08:46:48;;;;;;;;;;;20.00;55.40;;;;;;5019117;28;20375;-78
2022/08/22 08:49:22;;;;;;;;;;;20.00;55.30;;;;;;5020556;28;20489;-78
2022/08/22 08:51:54;;;;;;;;;;;20.10;55.10;;;;;;5019811;28;19929;-80
2022/08/22 08:54:26;;;;;;;;;;;20.10;55.10;;;;;;5022523;28;20552;-77
2022/08/22 08:56:58;;;;;;;;;;;20.20;54.90;;;;;;5022497;28;19933;-75
2022/08/22 08:59:32;;;;;;;;;;;20.20;54.80;;;;;;5022973;28;20462;-76
2022/08/22 09:02:10;;;;;;;;;;;20.30;54.70;;;;;;5021593;28;19928;-77
2022/08/22 09:04:54;;;;;;;;;;;20.30;54.50;;;;;;5021083;28;19955;-76
2022/08/22 09:07:31;;;;;;;;;;;20.40;54.50;;;;;;5015754;28;20023;-74
2022/08/22 09:10:08;;;;;;;;;;;20.50;54.40;;;;;;5022325;28;20014;-76
2022/08/22 09:12:45;;;;;;;;;;;20.50;54.30;;;;;;5020853;28;20389;-76
2022/08/22 09:15:16;;;;;;;;;;;20.60;54.20;;;;;;5020570;28;19940;-76
2022/08/22 09:17:57;;;;;;;;;;;20.60;53.90;;;;;;5019549;28;19952;-76
2022/08/22 09:20:38;;;;;;;;;;;20.70;53.90;;;;;;5020221;28;20039;-75
2022/08/22 09:23:24;;;;;;;;;;;20.80;53.60;;;;;;5019971;28;19936;-78
2022/08/22 09:25:54;;;;;;;;;;;20.90;53.60;;;;;;5015497;28;19935;-77
2022/08/22 09:28:24;;;;;;;;;;;20.90;53.40;;;;;;5018755;28;20692;-75
2022/08/22 09:30:58;;;;;;;;;;;21.00;53.20;;;;;;5022447;28;19976;-76
2022/08/22 09:33:32;;;;;;;;;;;21.10;53.10;;;;;;5024369;28;20071;-75
2022/08/22 09:36:01;;;;;;;;;;;21.20;53.00;;;;;;5020712;28;19940;-76
2022/08/22 09:38:33;;;;;;;;;;;21.20;52.70;;;;;;5019143;28;19995;-78
2022/08/22 09:41:08;;;;;;;;;;;21.30;52.60;;;;;;5019236;28;19991;-76
2022/08/22 09:43:38;;;;;;;;;;;21.40;52.40;;;;;;5019932;28;19929;-75
2022/08/22 09:46:10;;;;;;;;;;;21.40;52.20;;;;;;5022254;28;19987;-76
2022/08/22 09:48:42;;;;;;;;;;;21.50;52.20;;;;;;5019181;28;19929;-76
2022/08/22 09:51:15;;;;;;;;;;;21.50;52.20;;;;;;5021549;28;19986;-76
2022/08/22 09:53:44;;;;;;;;;;;21.60;52.00;;;;;;5020523;28;19936;-77
2022/08/22 09:56:18;;;;;;;;;;;21.70;51.90;;;;;;5015526;28;19936;-79
2022/08/22 09:58:49;;;;;;;;;;;21.80;51.70;;;;;;5021685;28;19936;-76
2022/08/22 10:01:24;;;;;;;;;;;21.90;51.70;;;;;;5022656;28;19929;-76
2022/08/22 10:04:18;;;;;;;;;;;21.90;51.50;;;;;;5023120;28;19937;-75
2022/08/22 10:06:51;;;;;;;;;;;22.00;51.40;;;;;;5019528;28;19928;-77
2022/08/22 10:09:21;;;;;;;;;;;22.10;51.40;;;;;;5019489;28;19937;-78
2022/08/22 10:11:53;;;;;;;;;;;22.20;51.20;;;;;;5017750;28;19936;-78
2022/08/22 10:14:21;;;;;;;;;;;22.20;51.10;;;;;;5021904;28;20432;-78
2022/08/22 10:16:55;;;;;;;;;;;22.30;51.00;;;;;;5026103;28;20419;-79
2022/08/22 10:19:25;;;;;;;;;;;22.40;51.20;;;;;;5020927;28;20309;-76
2022/08/22 10:22:06;;;;;;;;;;;22.40;50.60;;;;;;5019668;28;19929;-76
2022/08/22 10:24:37;;;;;;;;;;;22.50;50.70;;;;;;5019574;28;19935;-77
2022/08/22 10:27:07;;;;;;;;;;;22.60;50.60;;;;;;5018145;28;19929;-75
2022/08/22 10:29:49;;;;;;;;;;;22.60;50.40;;;;;;5020766;28;19929;-76
2022/08/22 10:32:20;;;;;;;;;;;22.80;50.20;;;;;;5018859;28;20071;-76
2022/08/22 10:34:49;;;;;;;;;;;22.80;50.10;;;;;;5021004;28;19933;-76
2022/08/22 10:37:18;;;;;;;;;;;22.90;50.00;;;;;;5018219;28;19932;-77
2022/08/22 10:39:47;;;;;;;;;;;23.00;49.80;;;;;;5017304;28;19940;-76
2022/08/22 10:42:24;;;;;;;;;;;23.10;49.60;;;;;;5019790;28;20443;-77
2022/08/22 10:44:56;;;;;;;;;;;23.10;49.40;;;;;;5019065;28;19956;-76
2022/08/22 10:47:27;;;;;;;;;;;23.30;49.30;;;;;;5017377;28;20036;-76
2022/08/22 10:49:56;;;;;;;;;;;23.30;48.90;;;;;;5019278;28;19929;-77
2022/08/22 10:52:24;;;;;;;;;;;23.40;48.70;;;;;;5019824;28;19933;-76
2022/08/22 10:54:52;;;;;;;;;;;23.50;48.60;;;;;;5022271;28;20382;-76
2022/08/22 10:57:27;;;;;;;;;;;23.60;48.40;;;;;;5018254;28;20413;-80
2022/08/22 11:00:01;;;;;;;;;;;23.60;48.20;;;;;;5021585;28;20048;-77
2022/08/22 11:02:45;;;;;;;;;;;23.70;47.80;;;;;;5017926;28;19936;-78
2022/08/22 11:05:21;;;;;;;;;;;23.80;47.70;;;;;;5021887;28;19933;-76
2022/08/22 11:07:49;;;;;;;;;;;23.90;47.50;;;;;;5022909;28;19933;-81
2022/08/22 11:10:21;;;;;;;;;;;24.00;47.80;;;;;;5026031;28;19929;-78
2022/08/22 11:12:54;;;;;;;;;;;24.00;47.40;;;;;;5023503;28;19932;-79
2022/08/22 11:15:41;;;;;;;;;;;24.20;47.00;;;;;;5023729;28;20309;-76
2022/08/22 11:18:16;;;;;;;;;;;24.20;47.90;;;;;;5023042;28;19940;-78
2022/08/22 11:20:48;;;;;;;;;;;24.30;46.80;;;;;;5025252;28;19933;-76
2022/08/22 11:23:23;;;;;;;;;;;24.40;46.40;;;;;;5028425;28;19929;-78
2022/08/22 11:25:53;;;;;;;;;;;24.50;46.20;;;;;;5016604;28;19929;-75
2022/08/22 11:28:28;;;;;;;;;;;24.50;45.60;;;;;;5018351;28;19933;-76
2022/08/22 11:31:02;;;;;;;;;;;24.60;45.80;;;;;;5024134;28;19936;-77
2022/08/22 11:33:32;;;;;;;;;;;24.70;45.60;;;;;;5025485;28;19929;-75
2022/08/22 11:36:11;;;;;;;;;;;24.80;45.40;;;;;;5024332;28;19929;-76
2022/08/22 11:38:43;;;;;;;;;;;24.90;45.10;;;;;;5023082;28;20015;-78
2022/08/22 11:41:14;;;;;;;;;;;24.90;45.00;;;;;;5016769;28;20447;-77
2022/08/22 11:43:48;;;;;;;;;;;25.00;44.80;;;;;;5023009;28;19936;-77
2022/08/22 11:46:27;;;;;;;;;;;25.10;44.70;;;;;;5024700;28;20415;-75
2022/08/22 11:48:58;;;;;;;;;;;25.10;44.50;;;;;;5023375;28;19935;-77
2022/08/22 11:51:34;;;;;;;;;;;25.20;44.20;;;;;;5025779;28;19929;-77
2022/08/22 11:54:06;;;;;;;;;;;25.30;43.70;;;;;;5021522;28;19936;-77
2022/08/22 11:56:35;;;;;;;;;;;25.30;44.50;;;;;;5019431;28;20430;-79
2022/08/22 11:59:07;;;;;;;;;;;25.40;43.80;;;;;;5023923;28;19933;-77
2022/08/22 12:01:36;;;;;;;;;;;25.50;43.50;;;;;;5022180;28;19940;-76
2022/08/22 12:04:09;;;;;;;;;;;25.60;43.40;;;;;;5017434;28;20389;-78
2022/08/22 12:06:55;;;;;;;;;;;25.70;43.20;;;;;;5013415;28;19937;-77
2022/08/22 12:09:39;;;;;;;;;;;25.70;43.10;;;;;;5011499;28;19977;-77
2022/08/22 12:12:16;;;;;;;;;;;25.80;42.90;;;;;;5021561;28;19929;-77
2022/08/22 12:14:46;;;;;;;;;;;25.90;42.70;;;;;;5017525;28;20355;-76
2022/08/22 12:17:18;;;;;;;;;;;26.00;42.80;;;;;;5012192;28;19937;-76
2022/08/22 12:19:50;;;;;;;;;;;26.00;42.70;;;;;;5012556;28;19929;-76
2022/08/22 12:22:36;;;;;;;;;;;26.10;42.00;;;;;;5013941;28;19940;-77
2022/08/22 12:25:08;;;;;;;;;;;26.20;42.60;;;;;;5018966;28;20286;-78
2022/08/22 12:27:44;;;;;;;;;;;26.20;41.90;;;;;;5014752;28;19929;-77
2022/08/22 12:30:15;;;;;;;;;;;26.30;41.90;;;;;;5020908;28;20408;-78
2022/08/22 12:32:53;;;;;;;;;;;26.40;41.90;;;;;;5018161;28;19940;-75
2022/08/22 12:35:34;;;;;;;;;;;26.40;41.80;;;;;;5019326;28;20344;-79
2022/08/22 12:38:08;;;;;;;;;;;26.50;41.50;;;;;;5022520;28;19933;-76
2022/08/22 12:40:41;;;;;;;;;;;26.60;41.50;;;;;;5016109;28;19940;-77
2022/08/22 12:43:13;;;;;;;;;;;26.60;41.30;;;;;;5018997;28;19929;-77
2022/08/22 12:45:48;;;;;;;;;;;26.70;41.30;;;;;;5016050;28;19929;-78
2022/08/22 12:48:21;;;;;;;;;;;26.80;41.30;;;;;;5018936;28;19932;-76
2022/08/22 12:50:50;;;;;;;;;;;26.90;41.40;;;;;;5022451;28;20000;-78
2022/08/22 12:53:27;;;;;;;;;;;26.90;40.90;;;;;;5023181;28;21716;-76
2022/08/22 12:56:01;;;;;;;;;;;26.90;40.70;;;;;;5016261;28;19944;-78
2022/08/22 12:58:32;;;;;;;;;;;27.00;40.90;;;;;;5015119;28;19936;-77
2022/08/22 13:01:01;;;;;;;;;;;27.10;41.20;;;;;;5015268;28;19929;-77
2022/08/22 13:24:36;;;;;;;;;;;27.60;39.20;;;;;;5044817;28;19923;-82
2022/08/22 13:27:07;;;;;;;;;;;27.70;39.10;;;;;;5043998;28;20044;-82
2022/08/22 13:29:37;;;;;;;;;;;27.70;39.00;;;;;;5044241;28;19933;-81
2022/08/22 13:32:04;;;;;;;;;;;27.80;38.70;;;;;;5050348;28;19968;-81
2022/08/22 13:34:35;;;;;;;;;;;27.80;39.20;;;;;;5052824;28;19939;-82
2022/08/22 13:37:03;;;;;;;;;;;27.90;39.10;;;;;;5050436;28;20566;-82
2022/08/22 13:39:32;;;;;;;;;;;27.90;39.20;;;;;;5044831;28;20396;-81
2022/08/22 13:42:02;;;;;;;;;;;27.90;39.20;;;;;;5044355;28;19929;-83
2022/08/22 13:44:30;;;;;;;;;;;28.00;38.90;;;;;;5049554;28;20401;-83
2022/08/22 13:47:02;;;;;;;;;;;28.10;38.90;;;;;;5052560;28;19933;-83
2022/08/22 13:49:31;;;;;;;;;;;28.20;38.20;;;;;;5050285;28;20294;-83
2022/08/22 13:52:05;;;;;;;;;;;28.20;38.40;;;;;;5053840;28;19928;-83
2022/08/22 13:54:38;;;;;;;;;;;28.20;38.90;;;;;;5048198;28;19932;-83
2022/08/22 13:57:09;;;;;;;;;;;28.40;38.70;;;;;;5052189;28;21478;-83
2022/08/22 13:59:39;;;;;;;;;;;28.40;38.30;;;;;;5047914;28;20608;-82
2022/08/22 14:02:09;;;;;;;;;;;28.40;38.50;;;;;;5055608;28;19939;-83
2022/08/22 14:04:39;;;;;;;;;;;28.50;38.80;;;;;;5053658;28;19932;-83
2022/08/22 14:07:19;;;;;;;;;;;28.60;38.80;;;;;;5056805;28;19932;-83
2022/08/22 14:09:52;;;;;;;;;;;28.60;38.00;;;;;;5052513;28;19928;-83
2022/08/22 14:12:22;;;;;;;;;;;28.60;37.90;;;;;;5050597;28;20030;-83
2022/08/22 14:14:54;;;;;;;;;;;28.60;38.00;;;;;;5050953;28;20026;-83
2022/08/22 14:17:23;;;;;;;;;;;28.70;37.50;;;;;;5055059;28;19935;-83
2022/08/22 14:19:52;;;;;;;;;;;28.60;38.60;;;;;;5050413;28;19928;-83
2022/08/22 14:22:21;;;;;;;;;;;28.60;38.40;;;;;;5048259;28;19935;-83
2022/08/22 14:24:48;;;;;;;;;;;28.70;37.60;;;;;;5056110;28;19932;-84
2022/08/22 14:27:16;;;;;;;;;;;28.70;37.80;;;;;;5057296;28;19940;-83
2022/08/22 14:29:46;;;;;;;;;;;28.70;37.60;;;;;;5052365;28;19935;-84
2022/08/22 14:32:28;;;;;;;;;;;28.70;36.30;;;;;;5051773;28;19982;-84
2022/08/22 14:34:56;;;;;;;;;;;28.80;37.10;;;;;;5049961;28;20312;-82
2022/08/22 14:37:24;;;;;;;;;;;28.90;37.00;;;;;;5056824;28;19928;-83
2022/08/22 14:39:56;;;;;;;;;;;28.90;36.40;;;;;;5049849;28;19935;-83
2022/08/22 14:42:24;;;;;;;;;;;28.90;36.90;;;;;;5058447;28;19939;-82
2022/08/22 14:45:02;;;;;;;;;;;29.00;38.10;;;;;;5059153;28;20435;-83
2022/08/22 14:47:31;;;;;;;;;;;29.00;37.30;;;;;;5058605;28;19994;-82
2022/08/22 14:49:58;;;;;;;;;;;29.10;37.70;;;;;;5053595;28;19929;-82
2022/08/22 14:52:34;;;;;;;;;;;29.10;36.30;;;;;;5058624;28;20309;-82
2022/08/22 14:55:09;;;;;;;;;;;29.20;36.80;;;;;;5053927;28;20140;-83
2022/08/22 14:57:37;;;;;;;;;;;29.30;36.90;;;;;;5057467;28;19931;-83
2022/08/22 15:00:10;;;;;;;;;;;29.30;37.50;;;;;;5054604;28;19934;-82
2022/08/22 15:02:36;;;;;;;;;;;29.40;36.70;;;;;;5049391;28;19936;-83
2022/08/22 15:05:12;;;;;;;;;;;29.40;36.60;;;;;;5054912;28;19928;-83
2022/08/22 15:07:39;;;;;;;;;;;29.50;36.30;;;;;;5054263;28;20084;-83
2022/08/22 15:10:08;;;;;;;;;;;29.50;36.80;;;;;;5056363;28;19924;-82
2022/08/22 15:12:37;;;;;;;;;;;29.50;36.60;;;;;;5060718;28;19986;-83